createdAt,value
2019-03-04T07:50:35.811Z,94270.492
2019-03-04T07:50:44.053Z,94267.375
2019-03-04T07:50:52.360Z,94273.632
2019-03-04T07:51:00.244Z,94270.929
2019-03-04T07:51:08.145Z,94272.421
2019-03-04T07:51:17.094Z,94274.343
2019-03-04T07:51:24.966Z,94274.843
2019-03-04T07:51:32.913Z,94271.203
2019-03-04T07:51:41.877Z,94271.203
2019-03-04T07:51:49.872Z,94274.46
2019-03-04T07:51:58.910Z,94273.304
2019-03-04T07:52:07.177Z,94269.164
2019-03-04T07:52:15.224Z,94269.898
2019-03-04T07:52:23.433Z,94267.984
2019-03-04T07:52:31.602Z,94267.25
2019-03-04T07:52:39.667Z,94267.648
2019-03-04T07:52:47.766Z,94267.312
2019-03-04T07:52:55.876Z,94270.062
2019-03-04T07:53:04.165Z,94266.164
2019-03-04T07:53:13.320Z,94269.718
2019-03-04T07:53:22.702Z,94266.921
2019-03-04T07:53:30.859Z,94266.156
2019-03-04T07:53:46.218Z,94271.625
2019-03-04T07:53:51.818Z,94276.031
2019-03-04T07:53:59.717Z,94271.89
2019-03-04T07:54:07.874Z,94274.875
2019-03-04T07:54:16.962Z,94271.125
2019-03-04T07:54:25.209Z,94268.64
2019-03-04T07:54:33.476Z,94271.156
2019-03-04T07:54:41.475Z,94270.89
2019-03-04T07:54:49.445Z,94274.062
2019-03-04T07:54:58.603Z,94272.64
2019-03-04T07:55:06.834Z,94272.171
2019-03-04T07:55:14.787Z,94269.515
2019-03-04T07:55:23.643Z,94270.109
2019-03-04T07:55:31.536Z,94266.21
2019-03-04T07:55:39.477Z,94267.468
2019-03-04T07:55:47.568Z,94266.234
2019-03-04T07:55:55.708Z,94269.218
2019-03-04T07:56:03.739Z,94268.382
2019-03-04T07:56:11.742Z,94265.992
2019-03-04T07:56:19.876Z,94268.57
2019-03-04T07:56:27.976Z,94267.406
2019-03-04T07:56:36.083Z,94269.89
2019-03-04T07:56:45.103Z,94268.57
2019-03-04T07:56:53.330Z,94266.671
2019-03-04T07:57:01.588Z,94268.335
2019-03-04T07:57:09.748Z,94266.296
2019-03-04T07:57:17.921Z,94267.031
2019-03-04T07:57:25.958Z,94266.234
2019-03-04T07:57:33.987Z,94268.046
2019-03-04T07:57:43.107Z,94269.109
2019-03-04T07:57:50.996Z,94266.328
2019-03-04T07:58:00.202Z,94269.796
2019-03-04T07:58:08.236Z,94270.296
2019-03-04T07:58:16.315Z,94273.531
2019-03-04T07:58:25.786Z,94279.453
2019-03-04T07:58:33.393Z,94282.734
2019-03-04T07:58:41.377Z,94278.289
2019-03-04T07:58:50.249Z,94280.375
2019-03-04T07:58:58.482Z,94279.445
2019-03-04T07:59:06.583Z,94279.445
2019-03-04T07:59:14.647Z,94282.085
2019-03-04T07:59:22.853Z,94281.921
2019-03-04T07:59:30.982Z,94285.734
2019-03-04T07:59:39.112Z,94282.843
2019-03-04T07:59:47.379Z,94285.593
2019-03-04T07:59:55.576Z,94286.937
2019-03-04T08:00:03.649Z,94290.906
2019-03-04T08:00:11.617Z,94288.453
2019-03-04T08:00:19.491Z,94291.171
2019-03-04T08:00:27.804Z,94288.609
2019-03-04T08:00:36.013Z,94284.164
2019-03-04T08:00:45.334Z,94290.921
2019-03-04T08:00:53.652Z,94288.843
2019-03-04T08:01:02.876Z,94286.578
2019-03-04T08:01:11.068Z,94285.25
2019-03-04T08:01:19.272Z,94283.125
2019-03-04T08:01:27.424Z,94283.789
2019-03-04T08:01:35.655Z,94284.609
2019-03-04T08:01:43.594Z,94285.125
2019-03-04T08:01:51.528Z,94283.804
2019-03-04T08:02:00.400Z,94284.296
2019-03-04T08:02:08.305Z,94279.523
2019-03-04T08:02:16.315Z,94278.031
2019-03-04T08:02:24.221Z,94280.093
2019-03-04T08:02:32.114Z,94278.359
2019-03-04T08:02:39.964Z,94277.89
2019-03-04T08:02:47.850Z,94282.359
2019-03-04T08:02:55.780Z,94279.218
2019-03-04T08:03:03.934Z,94284.937
2019-03-04T08:03:12.241Z,94282.382
2019-03-04T08:03:20.416Z,94280.398
2019-03-04T08:03:28.577Z,94282.21
2019-03-04T08:03:36.742Z,94281.953
2019-03-04T08:03:44.919Z,94282.117
2019-03-04T08:03:53.090Z,94283.625
2019-03-04T08:04:01.229Z,94282
2019-03-04T08:04:09.356Z,94283.562
2019-03-04T08:04:17.580Z,94282.406
2019-03-04T08:04:25.768Z,94284.312
2019-03-04T08:04:33.651Z,94286.468
2019-03-04T08:04:42.764Z,94289.609
2019-03-04T08:04:50.932Z,94287.625
2019-03-04T08:04:59.196Z,94290.625
2019-03-04T08:05:07.418Z,94289.89
2019-03-04T08:05:15.743Z,94289.734
2019-03-04T08:05:23.960Z,94291.46
2019-03-04T08:05:32.188Z,94293.937
2019-03-04T08:05:40.502Z,94292.539
2019-03-04T08:05:48.692Z,94296.578
2019-03-04T08:05:57.860Z,94296.914
2019-03-04T08:06:05.717Z,94298.093
2019-03-04T08:06:14.626Z,94300.25
2019-03-04T08:06:23.504Z,94304.312
2019-03-04T08:06:31.406Z,94309.515
2019-03-04T08:06:39.319Z,94307.554
2019-03-04T08:06:47.237Z,94307.031
2019-03-04T08:06:55.099Z,94306.296
2019-03-04T08:07:02.992Z,94302.585
2019-03-04T08:07:10.909Z,94302.585
2019-03-04T08:07:18.778Z,94301.851
2019-03-04T08:07:26.678Z,94300.859
2019-03-04T08:07:34.567Z,94305.921
2019-03-04T08:07:42.560Z,94304.734
2019-03-04T08:07:50.446Z,94307.39
2019-03-04T08:07:58.367Z,94306.421
2019-03-04T08:08:06.328Z,94303.937
2019-03-04T08:08:14.658Z,94301.109
2019-03-04T08:08:22.808Z,94301.445
2019-03-04T08:08:31.242Z,94301.781
2019-03-04T08:08:39.379Z,94301.375
2019-03-04T08:08:47.677Z,94303.953
2019-03-04T08:08:55.836Z,94297.562
2019-03-04T08:09:04.106Z,94299.789
2019-03-04T08:09:12.524Z,94295.343
2019-03-04T08:09:20.724Z,94296.078
2019-03-04T08:09:29.091Z,94299.89
2019-03-04T08:09:38.980Z,94302.625
2019-03-04T08:09:47.024Z,94302.859
2019-03-04T08:09:55.226Z,94301.984
2019-03-04T08:10:03.486Z,94305.859
2019-03-04T08:10:11.754Z,94309.078
2019-03-04T08:10:19.707Z,94312.578
2019-03-04T08:10:28.450Z,94313.546
2019-03-04T08:10:36.330Z,94316.031
2019-03-04T08:10:44.504Z,94316.39
2019-03-04T08:10:52.437Z,94316.976
2019-03-04T08:11:01.452Z,94321.187
2019-03-04T08:11:09.408Z,94321.679
2019-03-04T08:11:17.438Z,94321.015
2019-03-04T08:11:25.883Z,94317.468
2019-03-04T08:11:34.042Z,94313.5
2019-03-04T08:11:42.112Z,94313.578
2019-03-04T08:11:50.290Z,94313.242
2019-03-04T08:11:58.740Z,94308.718
2019-03-04T08:12:07.006Z,94307.117
2019-03-04T08:12:15.201Z,94309.789
2019-03-04T08:12:24.362Z,94311.039
2019-03-04T08:12:32.585Z,94312.601
2019-03-04T08:12:41.782Z,94309.953
2019-03-04T08:12:49.881Z,94308.796
2019-03-04T08:12:57.917Z,94307.804
2019-03-04T08:13:05.889Z,94308.468
2019-03-04T08:13:13.775Z,94305.984
2019-03-04T08:13:22.463Z,94305.32
2019-03-04T08:13:30.337Z,94306.64
2019-03-04T08:13:38.496Z,94305.914
2019-03-04T08:13:46.462Z,94308.625
2019-03-04T08:13:54.346Z,94305.812
2019-03-04T08:14:02.203Z,94309.054
2019-03-04T08:14:11.314Z,94308.156
2019-03-04T08:14:20.368Z,94311.468
2019-03-04T08:14:28.205Z,94312.789
2019-03-04T08:14:36.082Z,94316.578
2019-03-04T08:14:45.114Z,94317.75
2019-03-04T08:14:53.006Z,94319.078
2019-03-04T08:15:00.888Z,94316.828
2019-03-04T08:15:08.765Z,94317.234
2019-03-04T08:15:16.654Z,94319.578
2019-03-04T08:15:24.581Z,94319.648
2019-03-04T08:15:32.448Z,94317.406
2019-03-04T08:15:40.382Z,94312.625
2019-03-04T08:15:48.312Z,94312.953
2019-03-04T08:15:56.204Z,94313.437
2019-03-04T08:16:04.358Z,94312.625
2019-03-04T08:16:12.697Z,94311.031
2019-03-04T08:16:20.964Z,94310.14
2019-03-04T08:16:29.133Z,94310.14
2019-03-04T08:16:38.381Z,94312.296
2019-03-04T08:16:46.660Z,94312.125
2019-03-04T08:16:54.821Z,94312.296
2019-03-04T08:17:04.020Z,94314.281
2019-03-04T08:17:13.250Z,94319.968
2019-03-04T08:17:21.199Z,94322.796
2019-03-04T08:17:29.090Z,94330.171
2019-03-04T08:17:36.991Z,94331.164
2019-03-04T08:17:44.866Z,94333.312
2019-03-04T08:17:53.730Z,94335.531
2019-03-04T08:18:02.642Z,94336.125
2019-03-04T08:18:10.530Z,94337.851
2019-03-04T08:18:18.402Z,94337.117
2019-03-04T08:18:26.316Z,94336.023
2019-03-04T08:18:34.197Z,94333.968
2019-03-04T08:18:42.062Z,94335.031
2019-03-04T08:18:49.946Z,94336.359
2019-03-04T08:18:58.835Z,94337.687
2019-03-04T08:19:06.726Z,94337.953
2019-03-04T08:19:14.596Z,94335.125
2019-03-04T08:19:23.488Z,94335.859
2019-03-04T08:19:31.379Z,94335.781
2019-03-04T08:19:39.274Z,94335.695
2019-03-04T08:19:47.202Z,94335.96
2019-03-04T08:19:57.139Z,94331.726
2019-03-04T08:20:05.000Z,94333.812
2019-03-04T08:20:12.903Z,94333.476
2019-03-04T08:20:20.814Z,94333.968
2019-03-04T08:20:28.675Z,94332.546
2019-03-04T08:20:36.556Z,94333.812
2019-03-04T08:20:44.452Z,94336.765
2019-03-04T08:20:52.303Z,94335.468
2019-03-04T08:21:00.186Z,94332.648
2019-03-04T08:21:08.042Z,94334.609
2019-03-04T08:21:15.957Z,94333.14
2019-03-04T08:21:24.890Z,94337.781
2019-03-04T08:21:32.764Z,94335.203
2019-03-04T08:21:40.662Z,94334.132
2019-03-04T08:21:48.524Z,94334.968
2019-03-04T08:21:56.418Z,94334.367
2019-03-04T08:22:04.558Z,94334.968
2019-03-04T08:22:12.664Z,94336.531
2019-03-04T08:22:21.406Z,94329.343
2019-03-04T08:22:29.649Z,94328.25
2019-03-04T08:22:37.616Z,94328.015
2019-03-04T08:22:45.593Z,94323.71
2019-03-04T08:22:53.710Z,94325.531
2019-03-04T08:23:01.910Z,94325.773
2019-03-04T08:23:11.313Z,94325.109
2019-03-04T08:23:19.455Z,94330
2019-03-04T08:23:27.507Z,94331.328
2019-03-04T08:23:35.748Z,94331.328
2019-03-04T08:23:44.056Z,94331.492
2019-03-04T08:23:52.208Z,94332.32
2019-03-04T08:24:00.555Z,94329.835
2019-03-04T08:24:09.431Z,94326.843
2019-03-04T08:24:17.312Z,94330
2019-03-04T08:24:25.258Z,94328.507
2019-03-04T08:24:33.168Z,94331.164
2019-03-04T08:24:41.089Z,94333.14
2019-03-04T08:24:48.927Z,94332.312
2019-03-04T08:24:56.860Z,94335.031
2019-03-04T08:25:04.745Z,94335.453
2019-03-04T08:25:12.623Z,94336.515
2019-03-04T08:25:21.013Z,94334.304
2019-03-04T08:25:28.881Z,94330.328
2019-03-04T08:25:36.746Z,94331.828
2019-03-04T08:25:44.657Z,94332.648
2019-03-04T08:25:52.581Z,94334.703
2019-03-04T08:26:00.462Z,94336.937
2019-03-04T08:26:08.446Z,94333.64
2019-03-04T08:26:17.335Z,94335.625
2019-03-04T08:26:25.231Z,94332.984
2019-03-04T08:26:34.102Z,94339.765
2019-03-04T08:26:42.050Z,94341.257
2019-03-04T08:26:50.267Z,94342.984
2019-03-04T08:26:58.462Z,94341.921
2019-03-04T08:27:06.693Z,94344.898
2019-03-04T08:27:14.904Z,94340.25
2019-03-04T08:27:23.242Z,94346.718
2019-03-04T08:27:31.478Z,94349.367
2019-03-04T08:27:39.492Z,94347.375
2019-03-04T08:27:47.340Z,94351.593
2019-03-04T08:27:56.227Z,94348.273
2019-03-04T08:28:04.165Z,94351.351
2019-03-04T08:28:12.058Z,94352.515
2019-03-04T08:28:19.900Z,94348.046
2019-03-04T08:28:27.777Z,94349.367
2019-03-04T08:28:35.668Z,94347.875
2019-03-04T08:28:43.567Z,94353.562
2019-03-04T08:28:51.445Z,94350.359
2019-03-04T08:29:00.367Z,94353.828
2019-03-04T08:29:08.229Z,94354.664
2019-03-04T08:29:16.124Z,94358.367
2019-03-04T08:29:24.066Z,94362.609
2019-03-04T08:29:32.031Z,94362.593
2019-03-04T08:29:39.950Z,94361.015
2019-03-04T08:29:47.818Z,94361.015
2019-03-04T08:29:55.794Z,94365.585
2019-03-04T08:30:03.905Z,94368.64
2019-03-04T08:30:11.798Z,94368.796
2019-03-04T08:30:19.718Z,94374.187
2019-03-04T08:30:27.665Z,94377.007
2019-03-04T08:30:35.589Z,94380.312
2019-03-04T08:30:44.569Z,94379.218
2019-03-04T08:30:52.567Z,94378.39
2019-03-04T08:31:00.414Z,94381.312
2019-03-04T08:31:08.352Z,94379.484
2019-03-04T08:31:16.225Z,94379.156
2019-03-04T08:31:24.145Z,94377.078
2019-03-04T08:31:32.194Z,94378.968
2019-03-04T08:31:40.197Z,94377.718
2019-03-04T08:31:48.089Z,94378.375
2019-03-04T08:31:55.988Z,94378.281
2019-03-04T08:32:03.896Z,94371.421
2019-03-04T08:32:12.854Z,94372.679
2019-03-04T08:32:20.957Z,94373.414
2019-03-04T08:32:28.833Z,94375.796
2019-03-04T08:32:37.738Z,94375.406
2019-03-04T08:32:45.600Z,94373.414
2019-03-04T08:32:53.723Z,94374.968
2019-03-04T08:33:03.545Z,94373.156
2019-03-04T08:33:11.450Z,94370.359
2019-03-04T08:33:19.327Z,94371.328
2019-03-04T08:33:27.243Z,94371.906
2019-03-04T08:33:35.109Z,94371.968
2019-03-04T08:33:43.985Z,94371.968
2019-03-04T08:33:51.892Z,94370.578
2019-03-04T08:34:02.572Z,94370.906
2019-03-04T08:34:12.517Z,94372.398
2019-03-04T08:34:30.453Z,94373.718
2019-03-04T08:34:33.350Z,94372.398
2019-03-04T08:34:41.637Z,94369.734
2019-03-04T08:34:50.984Z,94370.078
2019-03-04T08:34:58.850Z,94371.39
2019-03-04T08:35:08.170Z,94373.132
2019-03-04T08:35:16.256Z,94375.265
2019-03-04T08:35:24.320Z,94379.07
2019-03-04T08:35:32.594Z,94377.25
2019-03-04T08:35:40.927Z,94375.093
2019-03-04T08:35:48.903Z,94370.89
2019-03-04T08:35:56.809Z,94371.39
2019-03-04T08:36:04.764Z,94373.437
2019-03-04T08:36:13.175Z,94373.773
2019-03-04T08:36:21.373Z,94370.062
2019-03-04T08:36:29.286Z,94372.718
2019-03-04T08:36:37.169Z,94377.742
2019-03-04T08:36:45.431Z,94376.523
2019-03-04T08:36:53.852Z,94378.75
2019-03-04T08:37:02.005Z,94378.078
2019-03-04T08:37:10.109Z,94375.359
2019-03-04T08:37:17.985Z,94375.437
2019-03-04T08:37:25.957Z,94371.062
2019-03-04T08:37:35.449Z,94371.89
2019-03-04T08:37:44.349Z,94378.671
2019-03-04T08:37:53.732Z,94376.593
2019-03-04T08:38:01.667Z,94378.179
2019-03-04T08:38:09.539Z,94380.734
2019-03-04T08:38:17.695Z,94379.648
2019-03-04T08:38:25.720Z,94377.843
2019-03-04T08:38:34.172Z,94374.843
2019-03-04T08:38:42.022Z,94373.125
2019-03-04T08:38:49.879Z,94373.781
2019-03-04T08:38:58.821Z,94375.671
2019-03-04T08:39:06.971Z,94382.359
2019-03-04T08:39:14.887Z,94382.531
2019-03-04T08:39:23.815Z,94378.89
2019-03-04T08:39:31.747Z,94385.507
2019-03-04T08:39:39.611Z,94383.359
2019-03-04T08:39:47.688Z,94385.179
2019-03-04T08:39:55.543Z,94383.125
2019-03-04T08:40:03.824Z,94385.507
2019-03-04T08:40:12.198Z,94380.64
2019-03-04T08:40:20.073Z,94377.71
2019-03-04T08:40:28.051Z,94377.781
2019-03-04T08:40:36.053Z,94378.226
2019-03-04T08:40:44.042Z,94375.562
2019-03-04T08:40:52.291Z,94381.687
2019-03-04T08:41:01.265Z,94381.609
2019-03-04T08:41:10.523Z,94381.093
2019-03-04T08:41:18.843Z,94383.734
2019-03-04T08:41:27.245Z,94384.5
2019-03-04T08:41:35.922Z,94383.835
2019-03-04T08:41:44.171Z,94385.82
2019-03-04T08:41:52.599Z,94382.914
2019-03-04T08:42:00.981Z,94385.796
2019-03-04T08:42:09.570Z,94391.781
2019-03-04T08:42:17.859Z,94384.468
2019-03-04T08:42:25.796Z,94383.976
2019-03-04T08:42:34.199Z,94382.671
2019-03-04T08:42:42.115Z,94381.921
2019-03-04T08:42:49.990Z,94383.242
2019-03-04T08:42:58.089Z,94384.312
2019-03-04T08:43:06.396Z,94381.164
2019-03-04T08:43:14.913Z,94381.992
2019-03-04T08:43:23.209Z,94386.296
2019-03-04T08:43:31.108Z,94391.093
2019-03-04T08:43:39.287Z,94384.14
2019-03-04T08:43:47.285Z,94381.171
2019-03-04T08:43:55.480Z,94384.468
2019-03-04T08:44:03.724Z,94387.062
2019-03-04T08:44:12.594Z,94379.843
2019-03-04T08:44:20.728Z,94378.343
2019-03-04T08:44:28.581Z,94380.343
2019-03-04T08:44:37.573Z,94388.359
2019-03-04T08:44:45.443Z,94395.718
2019-03-04T08:44:53.316Z,94392.757
2019-03-04T08:45:01.205Z,94392.359
2019-03-04T08:45:09.541Z,94382.5
2019-03-04T08:45:17.785Z,94381.406
2019-03-04T08:45:26.732Z,94382.5
2019-03-04T08:45:35.236Z,94381.828
2019-03-04T08:45:43.104Z,94382.398
2019-03-04T08:45:51.446Z,94381.906
2019-03-04T08:45:59.356Z,94390.515
2019-03-04T08:46:08.050Z,94394.89
2019-03-04T08:46:16.302Z,94390.914
2019-03-04T08:46:24.221Z,94394.296
2019-03-04T08:46:32.620Z,94383.468
2019-03-04T08:46:41.054Z,94388.921
2019-03-04T08:46:48.915Z,94388.429
2019-03-04T08:46:57.153Z,94381.312
2019-03-04T08:47:05.535Z,94386.109
2019-03-04T08:47:13.410Z,94393.75
2019-03-04T08:47:22.310Z,94389.093
2019-03-04T08:47:30.656Z,94393.89
2019-03-04T08:47:39.160Z,94391.578
2019-03-04T08:47:47.181Z,94392.875
2019-03-04T08:47:55.139Z,94396.546
2019-03-04T08:48:04.822Z,94393.398
2019-03-04T08:48:12.681Z,94395.882
2019-03-04T08:48:21.827Z,94389.164
2019-03-04T08:48:29.815Z,94395.054
2019-03-04T08:48:38.130Z,94390.843
2019-03-04T08:48:46.040Z,94398.203
2019-03-04T08:48:54.141Z,94393.062
2019-03-04T08:49:03.133Z,94401.421
2019-03-04T08:49:11.549Z,94396.187
2019-03-04T08:49:19.462Z,94396.281
2019-03-04T08:49:28.696Z,94394.226
2019-03-04T08:49:36.843Z,94392.906
2019-03-04T08:49:45.780Z,94398.671
2019-03-04T08:49:54.467Z,94399.187
2019-03-04T08:50:02.431Z,94391.078
2019-03-04T08:50:10.934Z,94390.734
2019-03-04T08:50:19.115Z,94394.531
2019-03-04T08:50:27.223Z,94397.773
2019-03-04T08:50:35.421Z,94396.617
2019-03-04T08:50:43.301Z,94395.031
2019-03-04T08:50:51.263Z,94387.75
2019-03-04T08:51:02.104Z,94389.265
2019-03-04T08:51:09.065Z,94393.359
2019-03-04T08:51:17.493Z,94390.21
2019-03-04T08:51:25.375Z,94393.375
2019-03-04T08:51:33.309Z,94392.953
2019-03-04T08:51:41.257Z,94397.992
2019-03-04T08:51:49.175Z,94396.328
2019-03-04T08:51:57.257Z,94387.89
2019-03-04T08:52:05.280Z,94397.5
2019-03-04T08:52:13.329Z,94394.281
2019-03-04T08:52:21.207Z,94396.828
2019-03-04T08:52:29.117Z,94387.328
2019-03-04T08:52:38.063Z,94390.21
2019-03-04T08:52:47.039Z,94389.156
2019-03-04T08:52:55.085Z,94387.656
2019-03-04T08:53:02.982Z,94389.812
2019-03-04T08:53:11.023Z,94388.156
2019-03-04T08:53:20.055Z,94381.445
2019-03-04T08:53:30.909Z,94387.078
2019-03-04T08:53:38.708Z,94389.718
2019-03-04T08:53:47.616Z,94389.718
2019-03-04T08:53:55.989Z,94392.531
2019-03-04T08:54:04.009Z,94387.875
2019-03-04T08:54:12.588Z,94383.437
2019-03-04T08:54:20.654Z,94384.593
2019-03-04T08:54:28.579Z,94387.078
2019-03-04T08:54:36.506Z,94386.148
2019-03-04T08:54:44.421Z,94382.843
2019-03-04T08:54:52.381Z,94387.234
2019-03-04T08:55:00.360Z,94393.031
2019-03-04T08:55:08.401Z,94401.875
2019-03-04T08:55:16.321Z,94390.718
2019-03-04T08:55:25.430Z,94385.234
2019-03-04T08:55:34.570Z,94394.523
2019-03-04T08:55:42.540Z,94388.796
2019-03-04T08:55:51.516Z,94382.578
2019-03-04T08:55:59.758Z,94382.914
2019-03-04T08:56:07.843Z,94386.578
2019-03-04T08:56:16.737Z,94388.046
2019-03-04T08:56:24.665Z,94391.875
2019-03-04T08:56:33.651Z,94391.375
2019-03-04T08:56:41.519Z,94384.257
2019-03-04T08:56:49.412Z,94380.953
2019-03-04T08:57:03.784Z,94381.445
2019-03-04T08:57:10.201Z,94381.773
2019-03-04T08:57:18.078Z,94382.601
2019-03-04T08:57:26.024Z,94384.257
2019-03-04T08:57:34.156Z,94379.625
2019-03-04T08:57:42.043Z,94373.14
2019-03-04T08:57:49.962Z,94381.351
2019-03-04T08:57:57.847Z,94384.328
2019-03-04T08:58:05.899Z,94382.507
2019-03-04T08:58:13.809Z,94378.039
2019-03-04T08:58:21.697Z,94380.953
2019-03-04T08:58:29.636Z,94377.375
2019-03-04T08:58:38.575Z,94381.984
2019-03-04T08:58:46.574Z,94372.742
2019-03-04T08:58:54.481Z,94372.976
2019-03-04T08:59:02.948Z,94387.382
2019-03-04T08:59:10.933Z,94376.453
2019-03-04T08:59:18.817Z,94379.25
2019-03-04T08:59:26.853Z,94387.546
2019-03-04T08:59:34.769Z,94384.312
2019-03-04T08:59:42.676Z,94389.625
2019-03-04T08:59:50.643Z,94391.171
2019-03-04T09:00:00.540Z,94379.765
2019-03-04T09:00:08.480Z,94378.867
2019-03-04T09:00:17.406Z,94379.531
2019-03-04T09:00:26.592Z,94378.039
2019-03-04T09:00:34.490Z,94388.796
2019-03-04T09:00:42.394Z,94372.976
2019-03-04T09:00:50.350Z,94376.953
2019-03-04T09:00:58.416Z,94383
2019-03-04T09:01:06.544Z,94386.718
2019-03-04T09:01:14.614Z,94387.718
2019-03-04T09:01:22.701Z,94383.906
2019-03-04T09:01:31.931Z,94383.242
2019-03-04T09:01:40.136Z,94387.875
2019-03-04T09:01:48.454Z,94383.734
2019-03-04T09:01:56.595Z,94384.828
2019-03-04T09:02:04.810Z,94378.625
2019-03-04T09:02:13.225Z,94381.515
2019-03-04T09:02:21.451Z,94382.015
2019-03-04T09:02:29.750Z,94384.07
2019-03-04T09:02:37.683Z,94378.437
2019-03-04T09:02:45.783Z,94379.359
2019-03-04T09:02:53.784Z,94379.109
2019-03-04T09:03:02.552Z,94380.335
2019-03-04T09:03:10.937Z,94377.609
2019-03-04T09:03:18.840Z,94379.765
2019-03-04T09:03:26.769Z,94381.25
2019-03-04T09:03:34.634Z,94379.953
2019-03-04T09:03:43.550Z,94381.234
2019-03-04T09:03:51.421Z,94381.609
2019-03-04T09:03:59.327Z,94382.085
2019-03-04T09:04:07.209Z,94381.921
2019-03-04T09:04:16.107Z,94379.937
2019-03-04T09:04:24.016Z,94384.398
2019-03-04T09:04:31.927Z,94389.531
2019-03-04T09:04:39.793Z,94388.21
2019-03-04T09:04:47.733Z,94384.57
2019-03-04T09:04:55.673Z,94385.656
2019-03-04T09:05:03.515Z,94384.898
2019-03-04T09:05:11.441Z,94385.89
2019-03-04T09:05:19.303Z,94385.414
2019-03-04T09:05:27.193Z,94385.984
2019-03-04T09:05:35.103Z,94391.687
2019-03-04T09:05:43.054Z,94385.82
2019-03-04T09:05:50.916Z,94379.109
2019-03-04T09:05:58.823Z,94381.093
2019-03-04T09:06:06.735Z,94381.281
2019-03-04T09:06:14.634Z,94384
2019-03-04T09:06:22.552Z,94381.609
2019-03-04T09:06:31.469Z,94380.429
2019-03-04T09:06:39.358Z,94381.75
2019-03-04T09:06:47.252Z,94378.867
2019-03-04T09:06:56.163Z,94387.382
2019-03-04T09:07:05.061Z,94380.757
2019-03-04T09:07:12.974Z,94383.671
2019-03-04T09:07:20.864Z,94374.14
2019-03-04T09:07:28.808Z,94366.687
2019-03-04T09:07:37.729Z,94381.421
2019-03-04T09:07:45.630Z,94371.492
2019-03-04T09:07:55.541Z,94374.562
2019-03-04T09:08:04.482Z,94378.039
2019-03-04T09:08:12.369Z,94380.429
2019-03-04T09:08:20.255Z,94379.789
2019-03-04T09:08:28.185Z,94372.39
2019-03-04T09:08:36.098Z,94358.937
2019-03-04T09:08:44.009Z,94362.976
2019-03-04T09:08:51.995Z,94366.187
2019-03-04T09:08:59.906Z,94364.015
2019-03-04T09:09:07.885Z,94360.234
2019-03-04T09:09:16.764Z,94370.968
2019-03-04T09:09:24.711Z,94365.367
2019-03-04T09:09:32.666Z,94359.734
2019-03-04T09:09:40.561Z,94368.015
2019-03-04T09:09:48.482Z,94364.039
2019-03-04T09:09:56.392Z,94363.546
2019-03-04T09:10:05.304Z,94360.375
2019-03-04T09:10:13.199Z,94360.562
2019-03-04T09:10:21.095Z,94367.187
2019-03-04T09:10:28.979Z,94371.492
2019-03-04T09:10:36.910Z,94364.109
2019-03-04T09:10:44.824Z,94367.351
2019-03-04T09:10:52.775Z,94362.218
2019-03-04T09:11:00.701Z,94367.093
2019-03-04T09:11:09.613Z,94369.25
2019-03-04T09:11:17.535Z,94371.796
2019-03-04T09:11:25.439Z,94368.343
2019-03-04T09:11:33.324Z,94362.382
2019-03-04T09:11:41.270Z,94356.593
2019-03-04T09:11:49.192Z,94357.828
2019-03-04T09:11:57.118Z,94356.828
2019-03-04T09:12:05.085Z,94359.687
2019-03-04T09:12:12.992Z,94350.703
2019-03-04T09:12:20.883Z,94351.359
2019-03-04T09:12:28.855Z,94352.687
2019-03-04T09:12:37.744Z,94352.265
2019-03-04T09:12:45.627Z,94352.093
2019-03-04T09:12:53.568Z,94349.968
2019-03-04T09:13:01.462Z,94352.617
2019-03-04T09:13:09.344Z,94357.984
2019-03-04T09:13:17.242Z,94355.437
2019-03-04T09:13:25.177Z,94359.968
2019-03-04T09:13:33.091Z,94355.929
2019-03-04T09:13:41.001Z,94360.64
2019-03-04T09:13:48.897Z,94359.718
2019-03-04T09:13:56.796Z,94356.234
2019-03-04T09:14:04.727Z,94356.664
2019-03-04T09:14:12.618Z,94355.406
2019-03-04T09:14:20.490Z,94355.078
2019-03-04T09:14:28.363Z,94356.093
2019-03-04T09:14:37.227Z,94355.171
2019-03-04T09:14:45.112Z,94353.445
2019-03-04T09:14:52.981Z,94353.687
2019-03-04T09:15:00.870Z,94354.578
2019-03-04T09:15:08.779Z,94352.671
2019-03-04T09:15:16.639Z,94348.39
2019-03-04T09:15:25.522Z,94346.304
2019-03-04T09:15:33.386Z,94340.179
2019-03-04T09:15:41.255Z,94343.328
2019-03-04T09:15:49.137Z,94347.46
2019-03-04T09:15:57.040Z,94347.718
2019-03-04T09:16:04.922Z,94346.796
2019-03-04T09:16:12.838Z,94345.171
2019-03-04T09:16:20.691Z,94347.718
2019-03-04T09:16:28.558Z,94350.015
2019-03-04T09:16:36.407Z,94344.484
2019-03-04T09:16:44.308Z,94347.132
2019-03-04T09:16:52.227Z,94353.265
2019-03-04T09:17:00.114Z,94345.242
2019-03-04T09:17:10.604Z,94347.46
2019-03-04T09:17:16.896Z,94347.796
2019-03-04T09:17:24.767Z,94352.007
2019-03-04T09:17:32.622Z,94344.312
2019-03-04T09:17:40.600Z,94347.375
2019-03-04T09:17:48.524Z,94346.328
2019-03-04T09:17:56.395Z,94347.39
2019-03-04T09:18:04.296Z,94345.976
2019-03-04T09:18:12.215Z,94350.281
2019-03-04T09:18:21.049Z,94356.546
2019-03-04T09:18:28.937Z,94340.937
2019-03-04T09:18:37.825Z,94339.945
2019-03-04T09:18:45.712Z,94345.734
2019-03-04T09:18:53.612Z,94344.718
2019-03-04T09:19:01.510Z,94343.656
2019-03-04T09:19:09.378Z,94345.976
2019-03-04T09:19:18.282Z,94347.718
2019-03-04T09:19:26.225Z,94349.031
2019-03-04T09:19:34.097Z,94348.695
2019-03-04T09:19:41.983Z,94351.015
2019-03-04T09:19:49.848Z,94351.343
2019-03-04T09:19:57.784Z,94345.812
2019-03-04T09:20:05.605Z,94347.39
2019-03-04T09:20:13.469Z,94352.265
2019-03-04T09:20:21.334Z,94352.093
2019-03-04T09:20:29.221Z,94352.593
2019-03-04T09:20:38.091Z,94349.875
2019-03-04T09:20:46.014Z,94354.484
2019-03-04T09:20:53.892Z,94352.171
2019-03-04T09:21:01.738Z,94350.445
2019-03-04T09:21:10.647Z,94352.828
2019-03-04T09:21:18.524Z,94351.765
2019-03-04T09:21:27.397Z,94346.796
2019-03-04T09:21:36.238Z,94350.343
2019-03-04T09:21:45.111Z,94347.812
2019-03-04T09:21:54.000Z,94357.89
2019-03-04T09:22:01.904Z,94350.445
2019-03-04T09:22:09.820Z,94351.601
2019-03-04T09:22:17.731Z,94349.781
2019-03-04T09:22:25.611Z,94345.312
2019-03-04T09:22:33.477Z,94357.062
2019-03-04T09:22:41.368Z,94353.828
2019-03-04T09:22:49.277Z,94348.789
2019-03-04T09:22:57.167Z,94352.765
2019-03-04T09:23:06.028Z,94348.453
2019-03-04T09:23:13.917Z,94354.914
2019-03-04T09:23:21.807Z,94354.328
2019-03-04T09:23:29.749Z,94355.406
2019-03-04T09:23:37.617Z,94353.656
2019-03-04T09:23:45.508Z,94349.375
2019-03-04T09:23:54.380Z,94349.468
2019-03-04T09:24:03.262Z,94349.453
2019-03-04T09:24:11.211Z,94347.46
2019-03-04T09:24:19.153Z,94353.351
2019-03-04T09:24:27.067Z,94354.015
2019-03-04T09:24:34.931Z,94350.203
2019-03-04T09:24:42.821Z,94355.906